createdAt,value
2019-01-24T00:01:20.141Z,76.97
2019-01-24T00:03:48.498Z,76.73
2019-01-24T00:06:18.461Z,80.85
2019-01-24T00:08:46.814Z,82.33
2019-01-24T00:11:15.129Z,82.27
2019-01-24T00:13:48.044Z,81.23
2019-01-24T00:16:20.899Z,79.10
2019-01-24T00:18:49.237Z,87.43
2019-01-24T00:21:19.149Z,82.33
2019-01-24T00:23:47.473Z,79.50
2019-01-24T00:26:15.895Z,87.30
2019-01-24T00:28:44.179Z,81.82
2019-01-24T00:31:15.547Z,87.77
2019-01-24T00:33:44.145Z,84.33
2019-01-24T00:36:27.347Z,87.03
2019-01-24T00:38:56.854Z,82.33
2019-01-24T00:41:27.825Z,83.80
2019-01-24T00:43:57.797Z,85.42
2019-01-24T00:46:28.141Z,84.77
2019-01-24T00:48:56.486Z,83.60
2019-01-24T00:51:24.777Z,85.43
2019-01-24T00:53:53.240Z,87.03
2019-01-24T00:56:21.555Z,87.60
2019-01-24T00:58:50.013Z,82.63
2019-01-24T01:01:18.316Z,79.63
2019-01-24T01:03:47.068Z,80.40
2019-01-24T01:06:15.412Z,88.80
2019-01-24T01:08:43.816Z,80.77
2019-01-24T01:11:12.114Z,81.78
2019-01-24T01:13:40.631Z,83.47
2019-01-24T01:16:09.489Z,80.97
2019-01-24T01:18:39.435Z,89.53
2019-01-24T01:21:07.768Z,85.33
2019-01-24T01:23:37.906Z,86.72
2019-01-24T01:26:07.454Z,84.77
2019-01-24T01:28:40.478Z,84.53
2019-01-24T01:31:11.538Z,90.83
2019-01-24T01:33:42.566Z,90.23
2019-01-24T01:36:15.437Z,85.83
2019-01-24T01:38:43.820Z,86.93
2019-01-24T01:41:12.120Z,83.72
2019-01-24T01:43:40.403Z,88.03
2019-01-24T01:46:08.938Z,88.50
2019-01-24T01:48:37.238Z,85.70
2019-01-24T01:51:05.560Z,85.67
2019-01-24T01:53:36.874Z,89.27
2019-01-24T01:56:10.065Z,86.17
2019-01-24T01:58:38.349Z,83.70
2019-01-24T02:01:07.844Z,84.93
2019-01-24T02:03:36.140Z,84.77
2019-01-24T02:06:04.491Z,86.10
2019-01-24T02:08:34.455Z,85.83
2019-01-24T02:11:02.759Z,91.27
2019-01-24T02:13:31.046Z,89.37
2019-01-24T02:15:59.354Z,87.50
2019-01-24T02:18:29.066Z,87.75
2019-01-24T02:20:57.350Z,91.45
2019-01-24T02:23:25.682Z,90.03
2019-01-24T02:25:53.956Z,81.63
2019-01-24T02:28:22.303Z,82.37
2019-01-24T02:30:52.237Z,92.50
2019-01-24T02:33:20.659Z,89.63
2019-01-24T02:35:48.969Z,85.28
2019-01-24T02:38:18.325Z,95.27
2019-01-24T02:40:46.703Z,89.37
2019-01-24T02:43:17.950Z,90.25
2019-01-24T02:45:48.971Z,85.87
2019-01-24T02:48:20.915Z,88.63
2019-01-24T02:50:53.533Z,92.63
2019-01-24T02:53:21.811Z,86.20
2019-01-24T02:55:50.142Z,95.45
2019-01-24T02:58:18.551Z,89.63
2019-01-24T03:00:46.871Z,92.33
2019-01-24T03:03:15.363Z,84.83
2019-01-24T03:05:43.723Z,91.33
2019-01-24T03:08:12.069Z,89.27
2019-01-24T03:10:40.368Z,94.27
2019-01-24T03:13:09.117Z,91.20
2019-01-24T03:15:37.505Z,89.10
2019-01-24T03:18:05.960Z,92.27
2019-01-24T03:20:34.268Z,82.03
2019-01-24T03:23:02.638Z,85.83
2019-01-24T03:25:35.371Z,88.97
2019-01-24T03:28:05.181Z,85.47
2019-01-24T03:30:33.532Z,93.53
2019-01-24T03:33:04.535Z,87.03
2019-01-24T03:35:35.271Z,91.87
2019-01-24T03:38:03.598Z,89.40
2019-01-24T03:40:31.892Z,97.60
2019-01-24T03:43:00.237Z,93.90
2019-01-24T03:45:33.289Z,87.57
2019-01-24T03:48:01.568Z,87.40
2019-01-24T03:50:32.178Z,87.80
2019-01-24T03:53:00.683Z,94.53
2019-01-24T03:55:30.593Z,94.28
2019-01-24T03:58:00.133Z,93.40
2019-01-24T04:00:29.832Z,94.50
2019-01-24T04:02:59.160Z,89.13
2019-01-24T04:05:27.449Z,90.00
2019-01-24T04:07:56.312Z,91.07
2019-01-24T04:10:25.695Z,87.20
2019-01-24T04:12:54.182Z,93.58
2019-01-24T04:15:24.538Z,93.77
2019-01-24T04:17:52.816Z,88.30
2019-01-24T04:20:21.164Z,101.20
2019-01-24T04:22:49.519Z,93.20
2019-01-24T04:25:18.246Z,95.47
2019-01-24T04:27:46.527Z,88.20
2019-01-24T04:30:19.543Z,93.87
2019-01-24T04:32:47.926Z,88.17
2019-01-24T04:35:23.057Z,85.60
2019-01-24T04:37:51.184Z,97.17
2019-01-24T04:40:21.021Z,85.40
2019-01-24T04:42:53.463Z,92.40
2019-01-24T04:45:21.853Z,88.93
2019-01-24T04:47:50.153Z,93.33
2019-01-24T04:50:19.091Z,94.50
2019-01-24T04:52:47.572Z,89.20
2019-01-24T04:55:19.251Z,88.42
2019-01-24T04:57:47.691Z,96.30
2019-01-24T05:00:24.958Z,90.00
2019-01-24T05:02:53.324Z,89.07
2019-01-24T05:05:27.695Z,95.90
2019-01-24T05:07:51.753Z,88.15
2019-01-24T05:10:20.110Z,92.37
2019-01-24T05:12:49.331Z,101.45
2019-01-24T05:15:17.832Z,95.53
2019-01-24T05:17:46.145Z,92.95
2019-01-24T05:20:14.471Z,92.57
2019-01-24T05:22:42.873Z,94.23
2019-01-24T05:25:13.311Z,89.47
2019-01-24T05:27:41.675Z,92.37
2019-01-24T05:30:15.751Z,96.87
2019-01-24T05:32:44.059Z,90.72
2019-01-24T05:35:12.445Z,94.27
2019-01-24T05:37:41.109Z,88.07
2019-01-24T05:40:09.835Z,96.67
2019-01-24T05:42:38.125Z,95.25
2019-01-24T05:45:09.429Z,96.25
2019-01-24T05:47:38.993Z,99.50
2019-01-24T05:50:11.375Z,98.10
2019-01-24T05:52:42.806Z,97.23
2019-01-24T05:55:12.559Z,100.62
2019-01-24T05:57:40.883Z,97.43
2019-01-24T06:00:14.379Z,95.57
2019-01-24T06:02:42.659Z,95.30
2019-01-24T06:05:11.953Z,97.35
2019-01-24T06:07:40.304Z,98.53
2019-01-24T06:10:13.838Z,92.67
2019-01-24T06:12:43.663Z,94.37
2019-01-24T06:15:16.458Z,95.65
2019-01-24T06:17:44.756Z,91.90
2019-01-24T06:20:13.567Z,96.63
2019-01-24T06:22:41.980Z,96.63
2019-01-24T06:25:31.340Z,98.10
2019-01-24T06:28:02.412Z,99.13
2019-01-24T06:30:30.866Z,95.38
2019-01-24T06:32:59.177Z,96.40
2019-01-24T06:35:28.731Z,105.10
2019-01-24T06:37:57.094Z,98.80
2019-01-24T06:40:28.764Z,94.43
2019-01-24T06:42:57.321Z,98.27
2019-01-24T06:45:25.689Z,94.70
2019-01-24T06:47:54.188Z,92.33
2019-01-24T06:50:23.066Z,96.17
2019-01-24T06:52:52.351Z,98.33
2019-01-24T06:55:25.816Z,93.63
2019-01-24T06:57:54.889Z,97.53
2019-01-24T07:00:23.196Z,94.87
2019-01-24T07:02:51.714Z,97.13
2019-01-24T07:05:20.062Z,93.93
2019-01-24T07:07:48.332Z,98.10
2019-01-24T07:10:21.628Z,94.87
2019-01-24T07:12:56.001Z,96.27
2019-01-24T07:15:25.492Z,98.10
2019-01-24T07:17:56.234Z,99.40
2019-01-24T07:20:24.517Z,99.50
2019-01-24T07:22:52.900Z,98.90
2019-01-24T07:25:23.509Z,96.53
2019-01-24T07:27:54.765Z,91.93
2019-01-24T07:30:23.133Z,99.97
2019-01-24T07:32:51.646Z,91.03
2019-01-24T07:35:21.002Z,96.03
2019-01-24T07:37:49.286Z,83.93
2019-01-24T07:40:23.841Z,94.10
2019-01-24T07:42:52.166Z,98.07
2019-01-24T07:45:32.513Z,91.67
2019-01-24T07:48:02.421Z,86.83
2019-01-24T07:50:33.609Z,87.27
2019-01-24T07:53:01.992Z,93.50
2019-01-24T07:55:31.522Z,91.80
2019-01-24T07:57:59.806Z,90.00
2019-01-24T08:00:32.986Z,91.33
2019-01-24T08:03:01.276Z,92.23
2019-01-24T08:05:30.694Z,89.03
2019-01-24T08:07:59.021Z,93.47
2019-01-24T08:10:31.644Z,93.00
2019-01-24T08:13:00.021Z,86.15
2019-01-24T08:15:29.690Z,91.03
2019-01-24T08:17:57.982Z,93.57
2019-01-24T08:20:27.638Z,88.07
2019-01-24T08:22:57.321Z,91.80
2019-01-24T08:25:25.590Z,82.13
2019-01-24T08:27:53.880Z,95.93
2019-01-24T08:30:24.442Z,95.80
2019-01-24T08:32:52.980Z,96.37
2019-01-24T08:35:21.240Z,95.07
2019-01-24T08:37:49.561Z,93.30
2019-01-24T08:40:24.787Z,95.93
2019-01-24T08:42:56.073Z,97.92
2019-01-24T08:45:24.518Z,94.57
2019-01-24T08:47:53.452Z,89.87
2019-01-24T08:50:24.334Z,89.40
2019-01-24T08:52:55.799Z,99.80
2019-01-24T08:55:49.379Z,97.15
2019-01-24T08:58:18.962Z,89.30
2019-01-24T09:00:47.254Z,90.83
2019-01-24T09:03:17.983Z,93.05
2019-01-24T09:05:46.367Z,96.63
2019-01-24T09:08:15.777Z,86.37
2019-01-24T09:10:44.105Z,88.00
2019-01-24T09:13:12.496Z,89.92
2019-01-24T09:15:43.155Z,89.00
2019-01-24T09:18:12.912Z,92.92
2019-01-24T09:20:41.235Z,95.97
2019-01-24T09:23:09.509Z,91.70
2019-01-24T09:25:37.799Z,99.87
2019-01-24T09:28:14.833Z,95.75
2019-01-24T09:30:42.357Z,92.83
2019-01-24T09:33:10.787Z,100.03
2019-01-24T09:35:39.394Z,88.80
2019-01-24T09:38:08.341Z,88.37
2019-01-24T09:40:36.703Z,92.17
2019-01-24T09:43:05.016Z,96.20
2019-01-24T09:45:36.281Z,88.97
2019-01-24T09:48:05.122Z,92.13
2019-01-24T09:50:33.495Z,91.93
2019-01-24T09:53:01.852Z,92.90
2019-01-24T09:55:30.133Z,92.47
2019-01-24T09:57:58.481Z,87.85
2019-01-24T10:00:36.127Z,96.92
2019-01-24T10:03:04.865Z,99.43
2019-01-24T10:05:33.219Z,93.97
2019-01-24T10:08:04.557Z,90.67
2019-01-24T10:10:38.070Z,96.20
2019-01-24T10:13:06.372Z,97.73
2019-01-24T10:15:34.656Z,98.33
2019-01-24T10:18:06.004Z,93.23
2019-01-24T10:20:34.331Z,94.63
2019-01-24T10:23:03.211Z,87.62
2019-01-24T10:25:35.851Z,95.10
2019-01-24T10:28:23.639Z,97.60
2019-01-24T10:30:52.003Z,91.50
2019-01-24T10:33:20.411Z,90.47
2019-01-24T10:35:49.189Z,96.50
2019-01-24T10:38:19.107Z,98.53
2019-01-24T10:40:47.400Z,90.13
2019-01-24T10:43:18.180Z,94.00
2019-01-24T10:45:49.186Z,92.43
2019-01-24T10:48:19.735Z,92.17
2019-01-24T10:50:48.055Z,94.50
2019-01-24T10:53:16.412Z,94.37
2019-01-24T10:55:48.977Z,97.50
2019-01-24T10:58:17.316Z,95.80
2019-01-24T11:00:48.983Z,84.93
2019-01-24T11:03:20.622Z,90.17
2019-01-24T11:05:51.850Z,90.00
2019-01-24T11:08:22.935Z,93.77
2019-01-24T11:10:51.230Z,92.17
2019-01-24T11:13:22.602Z,91.87
2019-01-24T11:15:50.889Z,94.42
2019-01-24T11:18:19.334Z,96.80
2019-01-24T11:20:48.094Z,89.73
2019-01-24T11:23:18.209Z,89.33
2019-01-24T11:25:46.484Z,89.35
2019-01-24T11:28:16.102Z,92.77
2019-01-24T11:30:44.406Z,98.60
2019-01-24T11:33:15.556Z,96.17
2019-01-24T11:35:44.012Z,91.90
2019-01-24T11:38:15.266Z,92.50
2019-01-24T11:40:43.550Z,87.30
2019-01-24T11:43:13.372Z,87.27
2019-01-24T11:45:42.839Z,89.17
2019-01-24T11:48:11.140Z,78.33
2019-01-24T11:50:39.541Z,81.63
2019-01-24T11:53:07.880Z,81.60
2019-01-24T11:55:36.163Z,88.53
2019-01-24T11:58:04.885Z,91.53
2019-01-24T12:00:37.572Z,90.20
2019-01-24T12:03:06.532Z,87.27
2019-01-24T12:05:34.898Z,86.32
2019-01-24T12:08:05.033Z,85.87
2019-01-24T12:10:38.137Z,81.15
2019-01-24T12:13:09.967Z,85.03
2019-01-24T12:15:39.859Z,81.07
2019-01-24T12:18:09.758Z,80.83
2019-01-24T12:20:39.561Z,79.43
2019-01-24T12:23:09.515Z,86.30
2019-01-24T12:25:39.353Z,86.60
2019-01-24T12:28:07.739Z,77.10
2019-01-24T12:30:37.199Z,74.80
2019-01-24T12:33:05.813Z,83.43
2019-01-24T12:35:34.154Z,77.10
2019-01-24T12:38:02.423Z,80.93
2019-01-24T12:40:30.733Z,82.93
2019-01-24T12:42:59.054Z,79.20
2019-01-24T12:45:36.379Z,80.27
2019-01-24T12:48:24.130Z,81.53
2019-01-24T12:50:52.479Z,81.17
2019-01-24T12:53:22.175Z,78.83
2019-01-24T12:55:52.286Z,85.73
2019-01-24T12:58:20.632Z,83.10
2019-01-24T13:00:48.994Z,79.47
2019-01-24T13:03:20.761Z,79.40
2019-01-24T13:05:49.125Z,75.55
2019-01-24T13:08:18.673Z,83.13
2019-01-24T13:10:46.981Z,82.82
2019-01-24T13:13:18.489Z,84.60
2019-01-24T13:15:46.774Z,84.60
2019-01-24T13:18:15.186Z,85.83
2019-01-24T13:20:43.481Z,79.87
2019-01-24T13:23:15.035Z,89.00
2019-01-24T13:25:43.349Z,78.53
2019-01-24T13:28:11.664Z,83.83
2019-01-24T13:30:39.968Z,82.60
2019-01-24T13:33:09.189Z,78.37
2019-01-24T13:35:38.305Z,80.10
2019-01-24T13:38:06.745Z,82.70
2019-01-24T13:40:35.117Z,84.03
2019-01-24T13:43:03.404Z,83.10
2019-01-24T13:45:34.119Z,84.70
2019-01-24T13:48:05.390Z,79.93
2019-01-24T13:50:33.666Z,80.40
2019-01-24T13:53:01.942Z,81.70
2019-01-24T13:55:30.260Z,81.35
2019-01-24T13:57:58.550Z,86.37
2019-01-24T14:00:52.935Z,88.33
2019-01-24T14:03:25.537Z,84.23
2019-01-24T14:05:54.803Z,93.30
2019-01-24T14:08:23.279Z,91.47
2019-01-24T14:10:51.608Z,84.33
2019-01-24T14:13:24.393Z,89.07
2019-01-24T14:15:52.729Z,86.87
2019-01-24T14:18:21.078Z,87.45
2019-01-24T14:20:50.687Z,93.10
2019-01-24T14:23:19.100Z,82.40
2019-01-24T14:25:47.378Z,85.30
2019-01-24T14:28:16.008Z,83.40
2019-01-24T14:30:44.345Z,87.90
2019-01-24T14:33:12.786Z,84.60
2019-01-24T14:35:42.101Z,85.60
2019-01-24T14:38:10.679Z,86.50
2019-01-24T14:40:39.092Z,88.43
2019-01-24T14:43:07.529Z,87.13
2019-01-24T14:45:36.877Z,91.28
2019-01-24T14:48:06.840Z,87.23
2019-01-24T14:50:35.152Z,91.80
2019-01-24T14:53:04.780Z,82.87
2019-01-24T14:55:33.096Z,84.10
2019-01-24T14:58:01.396Z,84.50
2019-01-24T15:00:35.239Z,85.62
2019-01-24T15:03:03.544Z,87.43
2019-01-24T15:05:33.534Z,83.23
2019-01-24T15:08:01.802Z,87.17
2019-01-24T15:10:32.468Z,86.10
2019-01-24T15:13:00.980Z,88.43
2019-01-24T15:15:29.347Z,84.20
2019-01-24T15:17:57.678Z,88.17
2019-01-24T15:20:25.970Z,83.37
2019-01-24T15:22:54.485Z,87.20
2019-01-24T15:25:24.463Z,91.10
2019-01-24T15:27:52.811Z,93.87
2019-01-24T15:30:26.053Z,86.27
2019-01-24T15:32:54.477Z,81.40
2019-01-24T15:35:22.795Z,93.33
2019-01-24T15:37:54.630Z,88.45
2019-01-24T15:40:27.100Z,100.50
2019-01-24T15:42:57.724Z,87.47
2019-01-24T15:45:26.033Z,92.27
2019-01-24T15:47:54.341Z,90.47
2019-01-24T15:50:23.456Z,90.47
2019-01-24T15:52:52.148Z,92.57
2019-01-24T15:55:20.551Z,87.70
2019-01-24T15:57:49.013Z,88.72
2019-01-24T16:00:20.154Z,94.23
2019-01-24T16:02:48.493Z,87.93
2019-01-24T16:05:17.601Z,88.63
2019-01-24T16:07:45.973Z,95.93
2019-01-24T16:10:16.603Z,85.93
2019-01-24T16:12:46.293Z,93.07
2019-01-24T16:15:17.393Z,92.43
2019-01-24T16:17:48.422Z,99.03
2019-01-24T16:20:21.895Z,95.50
2019-01-24T16:22:53.957Z,94.83
2019-01-24T16:25:24.970Z,93.37
2019-01-24T16:27:54.774Z,91.42
2019-01-24T16:30:39.482Z,98.15
2019-01-24T16:33:10.431Z,95.10
2019-01-24T16:35:40.051Z,96.07
2019-01-24T16:38:09.656Z,98.87
2019-01-24T16:40:43.719Z,100.53
2019-01-24T16:43:13.713Z,98.35
2019-01-24T16:45:43.117Z,99.40
2019-01-24T16:48:13.029Z,93.60
2019-01-24T16:50:41.314Z,105.17
2019-01-24T16:53:10.801Z,98.93
2019-01-24T16:55:40.833Z,93.83
2019-01-24T16:58:12.330Z,95.32
2019-01-24T17:00:47.843Z,97.93
2019-01-24T17:03:17.056Z,100.53
2019-01-24T17:05:45.697Z,92.37
2019-01-24T17:08:16.698Z,91.07
2019-01-24T17:10:45.206Z,94.33
2019-01-24T17:13:18.731Z,96.67
2019-01-24T17:15:50.782Z,100.25
2019-01-24T17:18:19.128Z,93.40
2019-01-24T17:20:47.482Z,94.90
2019-01-24T17:23:15.769Z,97.07
2019-01-24T17:25:44.102Z,91.75
2019-01-24T17:28:13.581Z,96.13
2019-01-24T17:30:41.886Z,95.38
2019-01-24T17:33:10.196Z,89.17
2019-01-24T17:35:38.666Z,86.00
2019-01-24T17:38:07.040Z,94.90
2019-01-24T17:40:36.067Z,98.37
2019-01-24T17:43:06.132Z,94.33
2019-01-24T17:45:34.634Z,90.30
2019-01-24T17:48:03.103Z,91.90
2019-01-24T17:50:33.018Z,86.87
2019-01-24T17:53:01.361Z,100.43
2019-01-24T17:55:34.178Z,100.37
2019-01-24T17:58:02.736Z,96.90
2019-01-24T18:00:32.792Z,93.33
2019-01-24T18:03:02.613Z,100.00
2019-01-24T18:05:33.108Z,99.03
2019-01-24T18:08:01.412Z,95.50
2019-01-24T18:10:33.134Z,98.80
2019-01-24T18:13:01.619Z,93.47
2019-01-24T18:15:32.837Z,91.93
2019-01-24T18:18:01.506Z,95.97
2019-01-24T18:20:37.570Z,92.17
2019-01-24T18:23:08.507Z,95.93
2019-01-24T18:25:40.428Z,93.30
2019-01-24T18:28:13.832Z,101.13
2019-01-24T18:30:44.704Z,95.03
2019-01-24T18:33:19.624Z,97.50
2019-01-24T18:35:48.400Z,100.78
2019-01-24T18:38:20.218Z,97.13
2019-01-24T18:40:48.546Z,96.60
2019-01-24T18:43:18.304Z,98.30
2019-01-24T18:45:49.707Z,101.10
2019-01-24T18:48:18.032Z,98.67
2019-01-24T18:50:46.480Z,99.63
2019-01-24T18:53:14.977Z,101.43
2019-01-24T18:55:43.395Z,96.90
2019-01-24T18:58:11.967Z,95.57
2019-01-24T19:00:42.067Z,105.70
2019-01-24T19:03:10.845Z,97.53
2019-01-24T19:05:39.176Z,100.35
2019-01-24T19:08:08.664Z,96.23
2019-01-24T19:10:37.022Z,101.63
2019-01-24T19:13:09.928Z,103.57
2019-01-24T19:15:38.424Z,100.23
2019-01-24T19:18:09.857Z,100.17
2019-01-24T19:20:38.151Z,98.72
2019-01-24T19:23:07.922Z,97.25
2019-01-24T19:25:36.378Z,94.67
2019-01-24T19:28:06.809Z,94.60
2019-01-24T19:30:35.701Z,100.47
2019-01-24T19:33:06.741Z,100.87
2019-01-24T19:35:35.230Z,95.30
2019-01-24T19:38:04.223Z,97.73
2019-01-24T19:40:33.495Z,98.57
2019-01-24T19:43:04.773Z,94.27
2019-01-24T19:45:35.176Z,99.73
2019-01-24T19:48:03.593Z,101.73
2019-01-24T19:50:32.252Z,98.67
2019-01-24T19:53:01.790Z,103.70
2019-01-24T19:55:31.784Z,107.37
2019-01-24T19:58:00.215Z,103.20
2019-01-24T20:00:31.969Z,104.03
2019-01-24T20:03:00.535Z,106.20
2019-01-24T20:05:29.142Z,106.73
2019-01-24T20:07:57.619Z,99.70
2019-01-24T20:10:30.437Z,101.65
2019-01-24T20:12:58.772Z,100.77
2019-01-24T20:15:31.074Z,101.15
2019-01-24T20:17:59.928Z,104.93
2019-01-24T20:20:28.989Z,105.97
2019-01-24T20:22:57.502Z,107.53
2019-01-24T20:25:31.288Z,109.27
2019-01-24T20:27:59.953Z,108.33
2019-01-24T20:30:30.202Z,107.00
2019-01-24T20:32:59.820Z,114.13
2019-01-24T20:35:34.248Z,105.07
2019-01-24T20:38:03.842Z,109.63
2019-01-24T20:40:35.272Z,110.23
2019-01-24T20:43:03.986Z,105.63
2019-01-24T20:45:32.370Z,104.63
2019-01-24T20:48:01.775Z,113.50
2019-01-24T20:50:30.177Z,104.43
2019-01-24T20:52:58.602Z,115.37
2019-01-24T20:55:26.994Z,111.95
2019-01-24T20:57:55.382Z,108.60
2019-01-24T21:00:24.635Z,105.23
2019-01-24T21:02:54.565Z,108.13
2019-01-24T21:05:24.817Z,113.83
2019-01-24T21:07:53.222Z,110.60
2019-01-24T21:10:29.236Z,119.93
2019-01-24T21:13:04.477Z,116.50
2019-01-24T21:15:33.104Z,111.67
2019-01-24T21:18:01.501Z,113.97
2019-01-24T21:20:32.322Z,116.97
2019-01-24T21:23:03.223Z,111.93
2019-01-24T21:25:32.742Z,121.33
2019-01-24T21:28:01.160Z,115.00
2019-01-24T21:30:35.335Z,111.22
2019-01-24T21:33:05.667Z,118.37
2019-01-24T21:35:34.009Z,110.37
2019-01-24T21:38:03.634Z,119.17
2019-01-24T21:40:36.162Z,107.00
2019-01-24T21:43:04.651Z,108.97
2019-01-24T21:45:35.873Z,114.57
2019-01-24T21:48:04.821Z,111.70
2019-01-24T21:50:33.620Z,104.40
2019-01-24T21:53:02.047Z,102.47
2019-01-24T21:55:31.680Z,104.33
2019-01-24T21:58:00.099Z,108.07
2019-01-24T22:00:30.199Z,117.17
2019-01-24T22:03:01.428Z,110.37
2019-01-24T22:05:29.805Z,112.37
2019-01-24T22:07:59.821Z,108.50
2019-01-24T22:10:31.073Z,106.00
2019-01-24T22:12:59.671Z,101.33
2019-01-24T22:15:31.305Z,107.93
2019-01-24T22:18:01.649Z,111.00
2019-01-24T22:20:30.013Z,102.33
2019-01-24T22:23:00.669Z,113.70
2019-01-24T22:25:50.146Z,109.45
2019-01-24T22:28:21.366Z,106.07
2019-01-24T22:30:50.044Z,114.40
2019-01-24T22:33:19.040Z,107.57
2019-01-24T22:35:47.424Z,108.50
2019-01-24T22:38:18.471Z,105.43
2019-01-24T22:40:46.884Z,100.38
2019-01-24T22:43:15.432Z,106.33
2019-01-24T22:45:43.826Z,118.47
2019-01-24T22:48:12.232Z,102.03
2019-01-24T22:50:40.616Z,109.80
2019-01-24T22:53:12.672Z,110.97
2019-01-24T22:55:41.058Z,108.22
2019-01-24T22:58:09.440Z,105.83
2019-01-24T23:00:48.156Z,117.40
2019-01-24T23:03:19.902Z,108.23
2019-01-24T23:05:48.620Z,104.25
2019-01-24T23:08:17.038Z,113.93
2019-01-24T23:10:45.465Z,108.45
2019-01-24T23:13:13.866Z,109.83
2019-01-24T23:15:42.351Z,108.63
2019-01-24T23:18:10.926Z,99.97
2019-01-24T23:20:40.496Z,102.80
2019-01-24T23:23:10.448Z,105.63
2019-01-24T23:25:38.871Z,105.43
2019-01-24T23:28:11.556Z,106.23
2019-01-24T23:33:54.446Z,103.20
2019-01-24T23:36:22.958Z,107.73
2019-01-24T23:38:51.350Z,107.77
2019-01-24T23:41:21.990Z,103.07
2019-01-24T23:43:50.579Z,117.87
2019-01-24T23:46:21.683Z,107.03
2019-01-24T23:48:50.180Z,113.47
2019-01-24T23:51:20.042Z,109.80
2019-01-24T23:53:48.405Z,108.93
2019-01-24T23:56:16.813Z,105.33
2019-01-24T23:58:45.202Z,116.65
